createdAt,value
2017-09-18T00:04:41.819Z,93.10
2017-09-18T00:09:42.931Z,93.20
2017-09-18T00:14:44.058Z,93.20
2017-09-18T00:19:45.169Z,93.20
2017-09-18T00:24:47.019Z,93.30
2017-09-18T00:29:48.148Z,93.40
2017-09-18T00:34:50.024Z,93.70
2017-09-18T00:39:51.124Z,93.70
2017-09-18T00:44:52.670Z,93.90
2017-09-18T00:49:53.795Z,94.10
2017-09-18T00:54:54.979Z,94.60
2017-09-18T00:59:56.118Z,94.50
2017-09-18T01:04:57.255Z,94.60
2017-09-18T01:09:59.090Z,94.60
2017-09-18T01:15:00.221Z,94.70
2017-09-18T01:20:01.336Z,94.90
2017-09-18T01:25:02.454Z,94.90
2017-09-18T01:30:03.767Z,95.00
2017-09-18T01:35:04.859Z,95.10
2017-09-18T01:40:05.978Z,95.30
2017-09-18T01:45:07.081Z,95.30
2017-09-18T01:50:08.175Z,95.30
2017-09-18T01:55:10.007Z,95.30
2017-09-18T02:00:11.094Z,95.30
2017-09-18T02:05:12.200Z,95.20
2017-09-18T02:10:13.318Z,95.30
2017-09-18T02:15:14.422Z,95.30
2017-09-18T02:20:15.559Z,95.30
2017-09-18T02:25:16.667Z,95.30
2017-09-18T02:30:17.762Z,95.30
2017-09-18T02:35:18.847Z,95.30
2017-09-18T02:40:20.001Z,95.30
2017-09-18T02:45:21.138Z,95.40
2017-09-18T02:50:22.246Z,95.50
2017-09-18T02:55:23.367Z,95.50
2017-09-18T03:00:24.466Z,95.30
2017-09-18T03:05:25.604Z,95.40
2017-09-18T03:10:26.714Z,95.60
2017-09-18T03:15:27.814Z,95.60
2017-09-18T03:20:29.649Z,95.70
2017-09-18T03:25:30.826Z,95.70
2017-09-18T03:30:31.952Z,95.70
2017-09-18T03:35:33.058Z,96.00
2017-09-18T03:40:34.205Z,95.60
2017-09-18T03:45:35.305Z,95.40
2017-09-18T03:50:36.416Z,95.50
2017-09-18T03:55:37.529Z,95.70
2017-09-18T04:00:38.637Z,95.50
2017-09-18T04:05:39.698Z,95.50
2017-09-18T04:10:40.767Z,95.50
2017-09-18T04:15:41.862Z,95.50
2017-09-18T04:20:42.956Z,95.50
2017-09-18T04:25:44.022Z,95.80
2017-09-18T04:30:45.131Z,95.80
2017-09-18T04:35:46.200Z,95.80
2017-09-18T04:40:47.336Z,95.90
2017-09-18T04:45:49.180Z,96.10
2017-09-18T04:50:50.258Z,95.90
2017-09-18T04:55:51.372Z,95.70
2017-09-18T05:00:53.186Z,95.60
2017-09-18T05:05:55.214Z,95.80
2017-09-18T05:10:56.303Z,95.80
2017-09-18T05:15:58.120Z,95.90
2017-09-18T05:20:59.254Z,95.90
2017-09-18T05:26:00.359Z,95.80
2017-09-18T05:31:01.424Z,95.80
2017-09-18T05:36:02.508Z,95.70
2017-09-18T05:41:03.577Z,95.90
2017-09-18T05:46:04.669Z,95.70
2017-09-18T05:51:06.486Z,96.10
2017-09-18T05:56:07.554Z,95.80
2017-09-18T06:01:08.652Z,95.90
2017-09-18T06:06:09.751Z,95.80
2017-09-18T06:11:11.581Z,95.90
2017-09-18T06:16:12.657Z,95.90
2017-09-18T06:21:13.737Z,95.90
2017-09-18T06:26:14.819Z,96.30
2017-09-18T06:31:16.673Z,95.00
2017-09-18T06:36:17.798Z,95.00
2017-09-18T06:41:18.923Z,94.30
2017-09-18T06:46:20.030Z,93.80
2017-09-18T06:51:21.146Z,94.00
2017-09-18T06:56:23.309Z,93.30
2017-09-18T07:01:24.433Z,93.20
2017-09-18T07:06:26.308Z,90.90
2017-09-18T07:11:27.382Z,90.90
2017-09-18T07:16:28.476Z,90.40
2017-09-18T07:21:29.582Z,88.60
2017-09-18T07:26:30.682Z,86.90
2017-09-18T07:31:32.528Z,83.50
2017-09-18T07:36:33.643Z,83.40
2017-09-18T07:41:34.764Z,77.40
2017-09-18T07:46:35.825Z,70.70
2017-09-18T07:51:36.982Z,68.30
2017-09-18T07:56:38.083Z,63.40
2017-09-18T08:01:39.929Z,64.60
2017-09-18T08:06:41.055Z,64.70
2017-09-18T08:11:42.237Z,61.70
2017-09-18T08:16:43.349Z,59.80
2017-09-18T08:21:44.474Z,56.00
2017-09-18T08:26:45.576Z,56.90
2017-09-18T08:31:46.696Z,56.50
2017-09-18T08:36:47.819Z,55.70
2017-09-18T08:41:48.919Z,57.20
2017-09-18T08:46:50.025Z,56.80
2017-09-18T08:51:51.162Z,52.30
2017-09-18T08:56:52.282Z,56.30
2017-09-18T09:01:53.366Z,57.80
2017-09-18T09:06:54.466Z,60.40
2017-09-18T09:11:55.559Z,61.00
2017-09-18T09:16:56.671Z,59.30
2017-09-18T09:21:58.486Z,44.30
2017-09-18T09:26:59.590Z,44.20
2017-09-18T09:32:00.699Z,41.70
2017-09-18T09:37:01.789Z,43.70
2017-09-18T09:42:02.886Z,46.30
2017-09-18T09:47:04.007Z,47.30
2017-09-18T09:52:05.112Z,47.90
2017-09-18T09:57:06.213Z,54.70
2017-09-18T10:02:08.070Z,58.30
2017-09-18T10:07:09.166Z,58.10
2017-09-18T10:12:11.006Z,48.70
2017-09-18T10:17:12.159Z,48.60
2017-09-18T10:22:13.238Z,49.10
2017-09-18T10:27:14.358Z,46.90
2017-09-18T10:32:15.468Z,47.60
2017-09-18T10:37:16.568Z,46.50
2017-09-18T10:42:17.670Z,49.30
2017-09-18T10:47:18.781Z,51.10
2017-09-18T10:52:19.907Z,51.40
2017-09-18T10:57:21.027Z,52.30
2017-09-18T11:02:22.870Z,58.10
2017-09-18T11:07:24.004Z,58.10
2017-09-18T11:12:26.561Z,51.10
2017-09-18T11:17:27.681Z,51.20
2017-09-18T11:22:28.821Z,52.70
2017-09-18T11:27:29.964Z,46.10
2017-09-18T11:32:31.056Z,43.40
2017-09-18T11:37:32.875Z,45.40
2017-09-18T11:42:34.016Z,45.50
2017-09-18T11:47:35.848Z,52.30
2017-09-18T11:52:38.011Z,52.30
2017-09-18T11:57:39.118Z,53.10
2017-09-18T12:02:41.257Z,58.70
2017-09-18T12:07:42.354Z,56.40
2017-09-18T12:12:43.512Z,58.10
2017-09-18T12:17:44.660Z,59.50
2017-09-18T12:22:45.759Z,57.90
2017-09-18T12:27:46.853Z,61.60
2017-09-18T12:32:48.723Z,61.30
2017-09-18T12:37:49.864Z,61.10
2017-09-18T12:42:50.969Z,58.00
2017-09-18T12:47:52.052Z,60.40
2017-09-18T12:52:53.879Z,54.00
2017-09-18T12:57:55.007Z,54.00
2017-09-18T13:02:56.127Z,50.60
2017-09-18T13:07:57.233Z,40.60
2017-09-18T13:12:59.074Z,33.60
2017-09-18T13:18:00.166Z,33.60
2017-09-18T13:23:02.147Z,34.50
2017-09-18T13:28:03.255Z,34.30
2017-09-18T13:33:04.797Z,31.50
2017-09-18T13:38:05.914Z,34.40
2017-09-18T13:43:07.071Z,40.50
2017-09-18T13:48:08.180Z,45.90
2017-09-18T13:53:09.277Z,48.10
2017-09-18T13:58:11.150Z,48.00
2017-09-18T14:03:13.013Z,48.90
2017-09-18T14:08:14.114Z,48.80
2017-09-18T14:13:15.195Z,46.80
2017-09-18T14:18:16.283Z,47.20
2017-09-18T14:23:17.374Z,45.00
2017-09-18T14:28:18.472Z,42.10
2017-09-18T14:33:20.346Z,40.50
2017-09-18T14:38:22.477Z,40.50
2017-09-18T14:43:23.578Z,42.10
2017-09-18T14:48:24.667Z,40.90
2017-09-18T14:53:25.730Z,43.10
2017-09-18T14:58:26.811Z,46.00
2017-09-18T15:03:28.688Z,50.00
2017-09-18T15:08:30.534Z,48.70
2017-09-18T15:13:31.618Z,48.70
2017-09-18T15:18:32.754Z,46.30
2017-09-18T15:23:33.845Z,46.00
2017-09-18T15:28:35.165Z,46.30
2017-09-18T15:33:36.270Z,49.00
2017-09-18T15:38:37.360Z,51.60
2017-09-18T15:43:38.452Z,52.40
2017-09-18T15:48:40.262Z,47.60
2017-09-18T15:53:41.356Z,47.60
2017-09-18T15:58:42.445Z,48.50
2017-09-18T16:03:43.526Z,46.20
2017-09-18T16:08:45.358Z,47.50
2017-09-18T16:13:46.475Z,47.40
2017-09-18T16:18:48.276Z,50.50
2017-09-18T16:23:49.582Z,50.50
2017-09-18T16:28:50.655Z,51.60
2017-09-18T16:33:51.758Z,55.00
2017-09-18T16:38:53.643Z,62.80
2017-09-18T16:43:54.801Z,62.90
2017-09-18T16:48:56.630Z,65.50
2017-09-18T16:53:57.691Z,65.40
2017-09-18T16:58:58.827Z,69.00
2017-09-18T17:03:59.943Z,70.00
2017-09-18T17:09:01.044Z,72.40
2017-09-18T17:14:02.886Z,77.80
2017-09-18T17:19:03.999Z,77.90
2017-09-18T17:24:05.143Z,80.00
2017-09-18T17:29:06.355Z,83.10
2017-09-18T17:34:07.426Z,83.70
2017-09-18T17:39:08.517Z,83.20
2017-09-18T17:44:09.604Z,84.30
2017-09-18T17:49:10.707Z,85.80
2017-09-18T17:54:12.554Z,88.20
2017-09-18T17:59:13.728Z,88.20
2017-09-18T18:04:14.834Z,88.90
2017-09-18T18:09:15.936Z,89.80
2017-09-18T18:14:17.319Z,90.20
2017-09-18T18:19:18.426Z,90.70
2017-09-18T18:24:20.264Z,91.50
2017-09-18T18:29:21.395Z,91.50
2017-09-18T18:34:22.518Z,91.70
2017-09-18T18:39:23.613Z,91.60
2017-09-18T18:44:25.645Z,91.80
2017-09-18T20:11:12.894Z,92.00
2017-09-18T20:16:14.002Z,92.60
2017-09-18T20:21:15.864Z,92.70
2017-09-18T20:26:16.945Z,92.70
2017-09-18T20:31:19.014Z,92.60
2017-09-18T20:36:20.952Z,92.70
2017-09-18T20:41:22.046Z,92.70
2017-09-18T20:46:23.129Z,92.70
2017-09-18T20:51:24.259Z,92.80
2017-09-18T20:56:25.396Z,92.80
2017-09-18T21:01:27.213Z,92.90
2017-09-18T21:06:28.350Z,92.80
2017-09-18T21:11:29.463Z,93.00
2017-09-18T21:16:30.622Z,93.00
2017-09-18T21:21:31.760Z,92.90
2017-09-18T21:26:32.860Z,93.10
2017-09-18T21:31:34.017Z,93.10
2017-09-18T21:36:35.175Z,93.20
2017-09-18T21:41:36.303Z,93.30
2017-09-18T21:46:38.141Z,93.40
2017-09-18T21:51:39.250Z,93.40
2017-09-18T21:56:41.158Z,93.50
2017-09-18T22:01:42.318Z,93.50
2017-09-18T22:06:43.434Z,93.50
2017-09-18T22:11:44.532Z,93.50
2017-09-18T22:16:46.368Z,93.60
2017-09-18T22:21:47.494Z,93.60
2017-09-18T22:26:49.317Z,93.50
2017-09-18T22:31:50.438Z,93.50
2017-09-18T22:36:52.266Z,93.50
2017-09-18T22:41:53.382Z,93.50
2017-09-18T22:46:54.560Z,93.50
2017-09-18T22:51:55.723Z,93.50
2017-09-18T22:56:56.816Z,93.40
2017-09-18T23:01:57.905Z,93.40
2017-09-18T23:06:58.994Z,93.50
2017-09-18T23:12:00.101Z,93.60
2017-09-18T23:17:01.205Z,93.60
2017-09-18T23:22:02.298Z,93.60
2017-09-18T23:27:03.412Z,93.70
2017-09-18T23:32:04.513Z,93.70
2017-09-18T23:37:05.614Z,93.90
2017-09-18T23:42:06.761Z,94.00
2017-09-18T23:47:07.850Z,94.00
2017-09-18T23:52:16.790Z,94.00
2017-09-18T23:57:18.665Z,94.00
